LYBE/BEG METAR and TAF weather

Enter ICAO airport designator
Station Type Date Time Source
LYBE METAR 2019/02/18 04:30 UTC NOAA

LYBE 180430Z 19001KT 3000 BR NSC M01/M01 Q1026 NOSIG


Station Type Date Time Source
LYBE Decoded METAR 2019/02/18 04:30 UTC NOAA

Beograd / Surcin, Serbia and Montenegro (LYBE) 44-49N 020-17E 99M
Feb 17, 2019 - 11:30 PM EST / 2019.02.18 0430 UTC
Wind: from the S (190 degrees) at 1 MPH (1 KT):0
Visibility: 1 mile(s):0
Weather: mist
Temperature: 30 F (-1 C)
Dew Point: 30 F (-1 C)
Relative Humidity: 100%
Pressure (altimeter): 30.30 in. Hg (1026 hPa)
ob: LYBE 180430Z 19001KT 3000 BR NSC M01/M01 Q1026 NOSIG
cycle: 4

Station Type Date Time Source
LYBE TAF 2019/02/17 18:21 UTC NOAA

TAF LYBE 171700Z 1718/1818 VRB02KT CAVOK TX13/1812Z TNM01/1805Z
BECMG 1800/1802 3000 BR
TEMPO 1803/1806 1200
BECMG 1808/1810 CAVOK


Example: see airport list